Time;durP1;ratioP1;P1;durP2;ratioP2;P2;SDS_P1;SDS_P2;PMS_P1;PMS_P2;Temp;Humidity;BMP_temperature;BMP_pressure;BME280_temperature;BME280_humidity;BME280_pressure;Samples;Min_cycle;Max_cycle;Signal;HPM_P1;HPM_P2
2022/06/07 00:00:48;;;;;;;12.23;8.77;;;12.50;99.90;;;;;;5103858;28;20090;-66
2022/06/07 00:03:14;;;;;;;15.48;10.18;;;12.30;99.90;;;;;;5101902;28;20040;-66
2022/06/07 00:05:43;;;;;;;20.23;10.95;;;12.40;99.90;;;;;;5103376;28;20475;-66
2022/06/07 00:08:12;;;;;;;18.83;11.63;;;12.50;99.90;;;;;;5106240;28;20092;-66
2022/06/07 00:10:38;;;;;;;21.08;12.10;;;12.50;99.90;;;;;;5107982;28;20131;-66
2022/06/07 00:13:05;;;;;;;14.70;11.40;;;12.60;99.90;;;;;;5106088;28;20109;-65
2022/06/07 00:15:30;;;;;;;19.40;13.18;;;12.50;99.90;;;;;;5106284;28;20052;-66
2022/06/07 00:17:56;;;;;;;16.88;13.13;;;12.40;99.90;;;;;;5107692;28;20040;-66
2022/06/07 00:20:22;;;;;;;17.30;13.60;;;12.60;99.90;;;;;;5107715;28;20043;-66
2022/06/07 00:22:48;;;;;;;17.83;13.70;;;12.40;99.90;;;;;;5106197;28;20068;-66
2022/06/07 00:25:15;;;;;;;18.02;13.60;;;12.40;99.90;;;;;;5106273;28;20093;-66
2022/06/07 00:27:41;;;;;;;17.48;13.10;;;12.60;99.90;;;;;;5105423;28;20071;-66
2022/06/07 00:30:09;;;;;;;18.05;13.55;;;12.60;99.90;;;;;;5105795;28;20063;-66
2022/06/07 00:32:35;;;;;;;22.73;15.18;;;12.50;99.90;;;;;;5105889;28;20495;-66
2022/06/07 00:35:02;;;;;;;22.65;14.13;;;12.60;99.90;;;;;;5107732;28;20043;-66
2022/06/07 00:37:28;;;;;;;19.25;14.18;;;12.40;99.90;;;;;;5107896;28;20073;-66
2022/06/07 00:39:53;;;;;;;22.48;14.13;;;12.50;99.90;;;;;;5105719;28;20076;-66
2022/06/07 00:42:19;;;;;;;26.55;15.63;;;12.50;99.90;;;;;;5105777;28;20044;-66
2022/06/07 00:44:46;;;;;;;22.17;15.20;;;12.50;99.90;;;;;;5107372;28;20052;-66
2022/06/07 00:47:19;;;;;;;22.73;15.27;;;12.50;99.90;;;;;;5106283;28;20052;-66
2022/06/07 00:49:56;;;;;;;21.63;16.75;;;12.50;99.90;;;;;;5106791;28;20039;-66
2022/06/07 00:52:24;;;;;;;23.85;16.95;;;12.40;99.90;;;;;;5106496;28;20055;-66
2022/06/07 00:54:50;;;;;;;24.38;15.68;;;12.50;99.90;;;;;;5104401;28;20047;-66
2022/06/07 00:57:16;;;;;;;20.52;16.48;;;12.80;99.90;;;;;;5111013;28;20039;-66
2022/06/07 00:59:42;;;;;;;19.73;14.68;;;12.60;99.90;;;;;;5108704;28;20088;-66
2022/06/07 01:02:08;;;;;;;21.95;15.38;;;12.70;99.90;;;;;;5105468;28;20055;-66
2022/06/07 01:04:35;;;;;;;23.75;15.90;;;12.60;99.90;;;;;;5088483;28;20047;-66
2022/06/07 01:12:32;;;;;;;22.55;14.23;;;12.60;99.90;;;;;;5105765;28;20048;-66
2022/06/07 01:14:58;;;;;;;18.33;14.23;;;12.60;99.90;;;;;;5104679;28;20072;-66
2022/06/07 01:17:24;;;;;;;22.23;15.57;;;12.60;99.90;;;;;;5104642;28;20048;-65
2022/06/07 01:19:49;;;;;;;19.40;15.35;;;12.70;99.90;;;;;;5106615;28;20078;-65
2022/06/07 01:22:16;;;;;;;19.40;15.02;;;12.60;99.90;;;;;;5105989;28;20052;-66
2022/06/07 01:24:42;;;;;;;19.88;14.75;;;12.70;99.90;;;;;;5106207;28;20048;-66
2022/06/07 01:27:08;;;;;;;19.90;15.35;;;12.80;99.90;;;;;;5107290;28;20047;-66
2022/06/07 01:29:35;;;;;;;18.98;16.23;;;12.70;99.90;;;;;;5107147;28;20082;-66
2022/06/07 01:32:01;;;;;;;18.00;14.13;;;12.70;99.90;;;;;;5087895;28;20052;-66
2022/06/07 01:34:27;;;;;;;19.52;15.55;;;12.70;99.90;;;;;;5104839;28;20066;-66
2022/06/07 01:36:58;;;;;;;19.60;15.68;;;12.70;99.90;;;;;;5104782;28;20047;-66
2022/06/07 01:42:09;;;;;;;18.02;15.25;;;12.80;99.90;;;;;;5104557;28;20044;-66
2022/06/07 01:44:40;;;;;;;25.35;17.10;;;12.70;99.90;;;;;;5106070;28;20048;-66
2022/06/07 01:47:10;;;;;;;19.63;16.95;;;12.70;99.90;;;;;;5104138;28;20095;-66
2022/06/07 01:49:37;;;;;;;20.25;16.77;;;12.80;99.90;;;;;;5105827;28;20515;-66
2022/06/07 01:52:05;;;;;;;18.92;15.93;;;12.80;99.90;;;;;;5105778;28;20028;-66
2022/06/07 01:54:31;;;;;;;21.23;16.65;;;12.70;99.90;;;;;;5105820;28;20044;-66
2022/06/07 01:56:57;;;;;;;20.38;16.20;;;12.70;99.90;;;;;;5107621;28;20048;-66
2022/06/07 01:59:23;;;;;;;17.90;15.13;;;12.60;99.90;;;;;;5106117;28;20107;-66
2022/06/07 02:01:49;;;;;;;17.92;14.93;;;12.70;99.90;;;;;;5105629;28;20140;-65
2022/06/07 02:04:16;;;;;;;18.17;14.35;;;12.60;99.90;;;;;;5105818;28;20404;-66
2022/06/07 02:06:42;;;;;;;19.10;15.52;;;12.80;99.90;;;;;;5104489;28;20069;-65
2022/06/07 02:09:09;;;;;;;17.95;13.32;;;12.80;99.90;;;;;;5103806;28;20052;-66
2022/06/07 02:11:36;;;;;;;20.23;14.23;;;12.90;99.90;;;;;;5104238;28;20036;-66
2022/06/07 02:14:03;;;;;;;19.73;15.38;;;12.80;99.90;;;;;;5104203;28;20079;-66
2022/06/07 02:16:29;;;;;;;19.50;14.90;;;12.90;99.90;;;;;;5105861;28;20059;-65
2022/06/07 02:18:54;;;;;;;19.58;15.38;;;12.90;99.90;;;;;;5105803;28;20036;-66
2022/06/07 02:21:23;;;;;;;19.50;14.95;;;13.00;99.90;;;;;;5103909;28;20073;-66
2022/06/07 02:23:49;;;;;;;18.83;15.43;;;12.70;99.90;;;;;;5104822;28;20046;-66
2022/06/07 02:26:24;;;;;;;19.40;14.32;;;12.70;99.90;;;;;;5105161;28;20054;-66
2022/06/07 02:28:54;;;;;;;20.83;14.38;;;12.70;99.90;;;;;;5105472;28;20048;-66
2022/06/07 02:31:21;;;;;;;21.27;14.80;;;12.80;99.90;;;;;;5105101;28;20196;-66
2022/06/07 02:33:48;;;;;;;20.05;14.15;;;12.70;99.90;;;;;;5103319;28;20273;-66
2022/06/07 02:36:15;;;;;;;18.15;13.57;;;12.70;99.90;;;;;;5104246;28;20164;-66
2022/06/07 02:38:41;;;;;;;18.88;14.60;;;12.90;99.90;;;;;;5103781;28;20048;-65
2022/06/07 02:41:10;;;;;;;20.42;13.55;;;12.90;99.90;;;;;;5104264;28;20425;-66
2022/06/07 02:43:36;;;;;;;18.08;13.20;;;12.80;99.90;;;;;;5104072;28;20055;-66
2022/06/07 02:46:02;;;;;;;16.70;13.23;;;12.80;99.90;;;;;;5105398;28;20040;-66
2022/06/07 02:48:29;;;;;;;20.38;13.80;;;12.80;99.90;;;;;;5120444;28;20094;-66
2022/06/07 02:50:55;;;;;;;20.83;13.93;;;12.70;99.90;;;;;;5103884;28;20054;-66
2022/06/07 02:53:21;;;;;;;19.92;13.82;;;12.80;99.90;;;;;;5115737;27;20075;-66
2022/06/07 02:55:46;;;;;;;19.35;13.68;;;12.80;99.90;;;;;;5103150;28;20511;-66
2022/06/07 02:58:12;;;;;;;20.23;12.90;;;12.80;99.90;;;;;;5107731;28;20040;-66
2022/06/07 03:00:38;;;;;;;18.85;12.57;;;12.80;99.90;;;;;;5103048;28;20040;-66
2022/06/07 03:03:04;;;;;;;19.98;14.18;;;12.90;99.90;;;;;;5103902;28;20036;-66
2022/06/07 03:05:30;;;;;;;18.10;12.85;;;12.90;99.90;;;;;;5104858;28;20052;-66
2022/06/07 03:07:56;;;;;;;18.88;12.68;;;12.80;99.90;;;;;;5103040;28;20143;-66
2022/06/07 03:10:22;;;;;;;19.90;13.18;;;12.90;99.90;;;;;;5103080;28;20080;-66
2022/06/07 03:12:48;;;;;;;16.90;13.20;;;12.90;99.90;;;;;;5103010;28;20048;-65
2022/06/07 03:15:14;;;;;;;21.30;13.35;;;12.80;99.90;;;;;;5102993;28;20056;-66
2022/06/07 03:17:40;;;;;;;19.25;13.25;;;12.80;99.90;;;;;;5102969;28;20047;-66
2022/06/07 03:20:08;;;;;;;20.17;14.05;;;13.00;99.90;;;;;;5102816;28;20039;-66
2022/06/07 03:22:35;;;;;;;19.42;13.48;;;12.90;99.90;;;;;;5103571;28;20059;-66
2022/06/07 03:25:05;;;;;;;20.17;12.73;;;12.70;99.90;;;;;;5104095;28;20048;-66
2022/06/07 03:27:32;;;;;;;18.50;12.48;;;12.70;99.90;;;;;;5104683;28;20415;-66
2022/06/07 03:29:58;;;;;;;18.02;11.98;;;12.70;99.90;;;;;;5103178;28;20047;-66
2022/06/07 03:32:24;;;;;;;17.77;13.20;;;12.90;99.90;;;;;;5103641;28;20052;-66
2022/06/07 03:34:50;;;;;;;18.83;13.07;;;12.70;99.90;;;;;;5103967;28;20089;-66
2022/06/07 03:37:16;;;;;;;19.25;14.10;;;12.80;99.90;;;;;;5102734;28;20032;-66
2022/06/07 03:39:42;;;;;;;20.23;14.38;;;12.80;99.90;;;;;;5105116;28;20044;-66
2022/06/07 03:42:08;;;;;;;20.13;14.00;;;12.90;99.90;;;;;;5104636;28;20052;-66
2022/06/07 03:44:33;;;;;;;20.08;13.85;;;12.70;99.90;;;;;;5103855;28;20042;-66
2022/06/07 03:46:59;;;;;;;21.45;15.00;;;12.80;99.90;;;;;;5102870;28;20144;-66
2022/06/07 03:49:25;;;;;;;16.65;13.00;;;12.70;99.90;;;;;;5102428;28;20170;-66
2022/06/07 03:51:51;;;;;;;19.13;13.55;;;12.80;99.90;;;;;;5103663;28;20062;-66
2022/06/07 03:54:17;;;;;;;18.75;13.73;;;12.80;99.90;;;;;;5104096;28;20063;-66
2022/06/07 03:56:44;;;;;;;20.05;14.35;;;12.80;99.90;;;;;;5104557;28;20039;-66
2022/06/07 03:59:09;;;;;;;19.50;13.98;;;12.90;99.90;;;;;;5104010;28;20052;-66
2022/06/07 04:01:35;;;;;;;20.98;15.18;;;12.90;99.90;;;;;;5104509;28;20050;-65
2022/06/07 04:04:04;;;;;;;18.83;13.07;;;12.90;99.90;;;;;;5103863;28;20044;-66
2022/06/07 04:06:34;;;;;;;18.83;13.73;;;12.90;99.90;;;;;;5103060;28;20067;-65
2022/06/07 04:08:59;;;;;;;20.15;13.50;;;12.90;99.90;;;;;;5103706;28;20104;-66
2022/06/07 04:11:27;;;;;;;19.85;14.35;;;13.00;99.90;;;;;;5103310;28;20040;-65
2022/06/07 04:13:55;;;;;;;21.48;14.10;;;13.00;99.90;;;;;;5102363;28;20270;-65
2022/06/07 04:16:23;;;;;;;19.83;14.18;;;12.80;99.90;;;;;;5103548;28;20036;-65
2022/06/07 04:18:49;;;;;;;23.50;14.63;;;13.00;99.90;;;;;;5102026;28;20056;-65
2022/06/07 04:21:15;;;;;;;21.10;14.40;;;13.10;99.90;;;;;;5102452;28;20044;-65
2022/06/07 04:23:42;;;;;;;20.25;14.00;;;13.00;99.90;;;;;;5102627;28;20083;-65
2022/06/07 04:26:10;;;;;;;20.88;15.07;;;12.90;99.90;;;;;;5102716;28;20043;-65
2022/06/07 04:28:36;;;;;;;20.50;15.10;;;12.90;99.90;;;;;;5102483;28;20051;-65
2022/06/07 04:31:02;;;;;;;19.70;14.40;;;13.00;99.90;;;;;;5085128;28;20060;-65
2022/06/07 04:33:28;;;;;;;18.35;13.73;;;13.00;99.90;;;;;;5103443;28;20102;-66
2022/06/07 04:35:53;;;;;;;18.95;14.00;;;13.10;99.90;;;;;;5051469;28;20059;-65
2022/06/07 04:38:19;;;;;;;18.90;13.55;;;13.10;99.90;;;;;;5102808;28;20090;-65
2022/06/07 04:40:45;;;;;;;20.83;14.65;;;13.00;99.90;;;;;;5102642;28;20040;-65
2022/06/07 04:43:12;;;;;;;21.70;14.00;;;13.00;99.90;;;;;;5101396;28;20048;-66
2022/06/07 04:45:40;;;;;;;20.02;14.45;;;13.00;99.90;;;;;;5063275;28;20243;-65
2022/06/07 04:48:08;;;;;;;19.70;13.98;;;12.90;99.90;;;;;;5089631;28;20054;-65
2022/06/07 04:50:34;;;;;;;22.13;15.20;;;13.10;99.90;;;;;;5087862;28;20128;-65
2022/06/07 04:53:00;;;;;;;19.40;13.95;;;13.20;99.90;;;;;;5096424;28;20060;-65
2022/06/07 04:55:26;;;;;;;20.60;14.50;;;13.20;99.90;;;;;;5081240;28;20044;-65
2022/06/07 04:57:52;;;;;;;18.95;13.18;;;13.20;99.90;;;;;;5091285;28;20051;-65
2022/06/07 05:00:18;;;;;;;23.38;15.30;;;13.20;99.90;;;;;;5103859;28;20047;-67
2022/06/07 05:02:46;;;;;;;24.38;14.77;;;13.10;99.90;;;;;;5091776;28;20576;-66
2022/06/07 05:05:14;;;;;;;22.55;14.13;;;13.20;99.90;;;;;;5098520;28;20040;-66
2022/06/07 05:07:40;;;;;;;17.20;13.13;;;13.20;99.90;;;;;;5099329;28;20060;-66
2022/06/07 05:10:08;;;;;;;19.73;14.55;;;13.10;99.90;;;;;;5081733;28;20040;-66
2022/06/07 05:12:35;;;;;;;20.33;13.73;;;13.10;99.90;;;;;;5090340;28;20085;-67
2022/06/07 05:15:02;;;;;;;22.13;14.68;;;13.10;99.90;;;;;;5095941;28;20047;-66
2022/06/07 05:17:28;;;;;;;20.42;15.25;;;13.10;99.90;;;;;;5090632;28;20051;-66
2022/06/07 05:19:54;;;;;;;20.05;14.13;;;12.90;99.90;;;;;;5095198;28;20347;-66
2022/06/07 05:22:20;;;;;;;20.80;15.00;;;13.10;99.90;;;;;;5090483;28;20144;-66
2022/06/07 05:24:45;;;;;;;19.67;14.98;;;13.00;99.90;;;;;;5099895;28;20042;-67
2022/06/07 05:27:17;;;;;;;23.58;14.50;;;13.20;99.90;;;;;;5091691;28;20050;-66
2022/06/07 05:29:54;;;;;;;20.23;14.77;;;13.20;99.90;;;;;;5095165;28;20056;-67
2022/06/07 05:32:20;;;;;;;18.33;14.13;;;13.20;99.90;;;;;;5090559;28;20052;-67
2022/06/07 05:34:46;;;;;;;20.10;14.95;;;13.10;99.90;;;;;;5071591;28;20048;-67
2022/06/07 05:37:19;;;;;;;25.48;16.00;;;13.10;99.90;;;;;;5088895;28;20066;-67
2022/06/07 05:39:45;;;;;;;19.50;13.65;;;13.00;99.90;;;;;;5096915;28;20051;-66
2022/06/07 05:42:12;;;;;;;23.60;14.45;;;13.00;99.90;;;;;;5091303;28;20040;-66
2022/06/07 05:44:38;;;;;;;21.40;16.13;;;13.10;99.90;;;;;;5098104;28;20052;-66
2022/06/07 05:47:05;;;;;;;21.33;15.13;;;13.10;99.90;;;;;;5090718;28;20128;-67
2022/06/07 05:49:31;;;;;;;22.02;15.25;;;13.00;99.90;;;;;;5092897;28;20040;-67
2022/06/07 05:51:57;;;;;;;21.65;16.30;;;13.10;99.90;;;;;;5072348;28;20047;-67
2022/06/07 05:54:23;;;;;;;18.65;14.80;;;13.10;99.90;;;;;;5092769;28;20071;-67
2022/06/07 05:56:49;;;;;;;21.92;14.75;;;13.10;99.90;;;;;;5086121;28;20299;-67
2022/06/07 05:59:15;;;;;;;20.50;16.05;;;13.10;99.90;;;;;;5094568;28;20051;-66
2022/06/07 06:01:41;;;;;;;22.48;15.77;;;13.00;99.90;;;;;;5098726;28;20032;-66
2022/06/07 06:04:07;;;;;;;22.77;16.40;;;13.00;99.90;;;;;;5082153;28;20077;-66
2022/06/07 06:06:34;;;;;;;26.30;16.35;;;12.90;99.90;;;;;;5080083;28;20036;-66
2022/06/07 06:11:45;;;;;;;24.75;15.82;;;13.10;99.90;;;;;;5095635;28;20051;-66
2022/06/07 06:14:10;;;;;;;18.58;14.65;;;13.10;99.90;;;;;;5069657;28;20043;-66
2022/06/07 06:16:37;;;;;;;19.88;14.88;;;13.10;99.90;;;;;;5098116;28;20055;-67
2022/06/07 06:19:03;;;;;;;19.80;14.65;;;13.00;99.90;;;;;;5088007;28;20426;-66
2022/06/07 06:21:35;;;;;;;23.23;15.07;;;13.10;99.90;;;;;;5095894;28;20052;-66
2022/06/07 06:24:02;;;;;;;20.70;15.35;;;13.10;99.90;;;;;;5088365;28;20043;-66
2022/06/07 06:26:28;;;;;;;22.17;15.75;;;13.10;99.90;;;;;;5095544;28;20065;-66
2022/06/07 06:28:54;;;;;;;22.17;15.20;;;13.10;99.90;;;;;;5089107;28;20051;-66
2022/06/07 06:31:20;;;;;;;26.70;16.42;;;13.10;99.90;;;;;;5095741;28;20052;-66
2022/06/07 06:33:49;;;;;;;24.73;15.38;;;13.10;99.90;;;;;;5089448;28;20074;-66
2022/06/07 06:36:17;;;;;;;22.73;14.55;;;13.10;99.90;;;;;;5087785;28;20048;-66
2022/06/07 06:38:43;;;;;;;23.80;16.13;;;13.00;99.90;;;;;;5085899;28;20055;-67
2022/06/07 06:41:14;;;;;;;20.38;14.93;;;13.00;99.90;;;;;;5097361;28;20048;-66
2022/06/07 06:43:40;;;;;;;19.77;14.73;;;13.10;99.90;;;;;;5090841;28;20093;-66
2022/06/07 06:46:15;;;;;;;20.90;12.98;;;13.00;99.90;;;;;;5098833;28;20050;-66
2022/06/07 06:48:40;;;;;;;19.88;14.02;;;12.70;99.90;;;;;;5088699;28;20043;-66
2022/06/07 06:51:11;;;;;;;23.48;15.35;;;12.70;99.90;;;;;;5101022;28;20347;-67
2022/06/07 06:53:38;;;;;;;22.50;15.13;;;12.60;99.90;;;;;;5089342;28;20048;-66
2022/06/07 06:56:05;;;;;;;21.77;15.15;;;12.60;99.90;;;;;;5096073;28;20047;-66
2022/06/07 06:58:31;;;;;;;24.38;15.85;;;12.40;99.90;;;;;;5089690;28;20055;-67
2022/06/07 07:01:01;;;;;;;27.67;15.35;;;12.50;99.90;;;;;;5097137;28;20040;-67
2022/06/07 07:03:27;;;;;;;22.00;15.25;;;12.40;99.90;;;;;;5089477;28;20048;-66
2022/06/07 07:05:53;;;;;;;19.83;14.43;;;12.50;99.90;;;;;;5092772;28;20077;-67
2022/06/07 07:08:18;;;;;;;18.60;13.82;;;12.40;99.90;;;;;;5088401;28;20051;-66
2022/06/07 07:10:44;;;;;;;21.38;13.80;;;12.50;99.90;;;;;;5094393;28;20055;-64
2022/06/07 07:13:10;;;;;;;16.45;11.77;;;12.50;99.90;;;;;;5088067;28;20070;-64
2022/06/07 07:15:36;;;;;;;15.55;11.98;;;12.50;99.90;;;;;;5094634;28;20073;-64
2022/06/07 07:18:02;;;;;;;19.17;12.65;;;12.40;99.90;;;;;;5071354;28;20147;-64
2022/06/07 07:20:28;;;;;;;15.52;11.13;;;12.50;99.90;;;;;;5088730;28;20066;-64
2022/06/07 07:22:54;;;;;;;17.35;12.13;;;12.50;99.90;;;;;;5088567;28;20051;-64
2022/06/07 07:25:20;;;;;;;18.95;12.52;;;12.60;99.90;;;;;;5105322;28;20072;-64
2022/06/07 07:27:46;;;;;;;18.30;12.50;;;12.70;99.90;;;;;;5090104;28;20043;-64
2022/06/07 07:30:13;;;;;;;23.10;12.70;;;12.70;99.90;;;;;;5096577;28;20055;-64
2022/06/07 07:32:39;;;;;;;21.35;12.45;;;12.70;99.90;;;;;;5091351;28;20056;-65
2022/06/07 07:35:05;;;;;;;20.85;12.20;;;12.90;99.90;;;;;;5084619;28;20511;-64
2022/06/07 07:37:32;;;;;;;16.55;11.82;;;12.90;99.90;;;;;;5092341;28;20130;-65
2022/06/07 07:39:57;;;;;;;16.90;11.85;;;13.00;99.90;;;;;;5096163;28;20097;-65
2022/06/07 07:42:23;;;;;;;19.80;10.68;;;13.00;99.90;;;;;;5070743;28;20035;-65
2022/06/07 07:44:49;;;;;;;16.13;9.38;;;13.10;99.90;;;;;;5095152;28;20055;-65
2022/06/07 07:47:14;;;;;;;17.30;8.95;;;13.30;99.90;;;;;;5087185;28;20044;-65
2022/06/07 07:49:40;;;;;;;15.27;9.68;;;13.20;99.90;;;;;;5094623;28;20055;-65
2022/06/07 07:52:06;;;;;;;16.77;9.43;;;13.10;99.90;;;;;;5096216;28;20062;-64
2022/06/07 07:54:31;;;;;;;12.18;8.43;;;13.10;99.90;;;;;;5095682;28;20124;-64
2022/06/07 07:56:57;;;;;;;15.25;9.10;;;13.10;99.90;;;;;;5096546;28;20581;-64
2022/06/07 07:59:24;;;;;;;14.13;8.13;;;13.10;99.90;;;;;;5086241;28;20051;-64
2022/06/07 08:01:50;;;;;;;13.07;7.22;;;13.00;99.90;;;;;;5094750;28;20143;-64
2022/06/07 08:04:16;;;;;;;13.27;8.90;;;13.00;99.90;;;;;;5083744;28;20112;-64
2022/06/07 08:06:42;;;;;;;11.55;7.68;;;13.00;99.90;;;;;;5094685;28;20097;-65
2022/06/07 08:09:09;;;;;;;12.40;7.20;;;13.00;99.90;;;;;;5087291;28;20056;-65
2022/06/07 08:11:38;;;;;;;12.48;7.15;;;13.20;99.90;;;;;;5095402;28;20048;-64
2022/06/07 08:14:06;;;;;;;12.20;7.38;;;13.10;99.90;;;;;;5089308;28;20111;-65
2022/06/07 08:16:32;;;;;;;12.50;6.78;;;12.90;99.90;;;;;;5095156;28;20416;-65
2022/06/07 08:18:58;;;;;;;12.00;7.70;;;12.90;99.90;;;;;;5087768;28;20220;-64
2022/06/07 08:21:26;;;;;;;12.50;7.35;;;13.00;99.90;;;;;;5100048;28;20032;-64
2022/06/07 08:23:54;;;;;;;15.43;7.38;;;13.10;99.90;;;;;;5098730;28;20201;-64
2022/06/07 08:26:22;;;;;;;12.10;7.10;;;13.10;99.90;;;;;;5094298;28;20146;-64
2022/06/07 08:28:48;;;;;;;10.30;6.60;;;13.00;99.90;;;;;;5090464;28;20047;-65
2022/06/07 08:31:20;;;;;;;8.48;7.10;;;13.10;99.90;;;;;;5102808;28;20302;-64
2022/06/07 08:39:15;;;;;;;10.48;7.35;;;13.00;99.90;;;;;;5091062;28;20537;-64
2022/06/07 08:42:05;;;;;;;10.68;7.72;;;12.90;99.90;;;;;;5099445;28;20043;-64
2022/06/07 08:44:36;;;;;;;15.15;7.95;;;12.90;99.90;;;;;;5065975;28;20051;-65
2022/06/07 08:47:19;;;;;;;15.27;7.90;;;13.00;99.90;;;;;;5097900;28;20398;-65
2022/06/07 08:49:46;;;;;;;16.30;7.95;;;13.10;99.90;;;;;;5080597;28;20124;-64
2022/06/07 08:52:33;;;;;;;15.40;7.80;;;13.00;99.90;;;;;;5099524;28;20073;-65
2022/06/07 08:55:01;;;;;;;13.63;7.72;;;12.90;99.90;;;;;;5067872;28;20112;-65
2022/06/07 08:57:37;;;;;;;15.60;8.50;;;13.00;99.90;;;;;;5052365;28;20033;-65
2022/06/07 09:00:18;;;;;;;17.30;8.35;;;13.00;99.90;;;;;;5114851;28;20067;-65
2022/06/07 09:03:17;;;;;;;17.52;7.75;;;12.90;99.90;;;;;;5094123;28;20055;-65
2022/06/07 09:05:43;;;;;;;15.52;8.82;;;13.00;99.90;;;;;;5088688;28;20098;-65
2022/06/07 09:08:13;;;;;;;15.18;8.75;;;13.10;99.90;;;;;;5090835;28;20474;-65
2022/06/07 09:13:25;;;;;;;15.77;9.63;;;13.10;99.90;;;;;;5084209;28;20065;-64
2022/06/07 09:15:54;;;;;;;15.02;9.57;;;13.20;99.90;;;;;;5097167;28;20138;-65
2022/06/07 09:18:24;;;;;;;21.13;10.18;;;13.00;99.90;;;;;;5093164;28;20111;-65
2022/06/07 09:20:53;;;;;;;19.70;10.57;;;13.00;99.90;;;;;;5098072;28;20058;-65
2022/06/07 09:23:23;;;;;;;14.82;9.40;;;12.90;99.90;;;;;;5090569;28;20119;-65
2022/06/07 09:25:52;;;;;;;20.67;10.77;;;13.00;99.90;;;;;;5097240;28;20050;-64
2022/06/07 09:28:29;;;;;;;18.38;10.90;;;13.00;99.90;;;;;;5088637;28;20075;-65
2022/06/07 09:31:04;;;;;;;17.92;10.10;;;12.90;99.90;;;;;;5105708;28;20117;-65
2022/06/07 09:33:33;;;;;;;17.77;10.20;;;13.00;99.90;;;;;;5090484;28;20535;-65
2022/06/07 09:36:17;;;;;;;18.98;10.95;;;13.00;99.90;;;;;;5086345;28;20063;-65
2022/06/07 09:38:58;;;;;;;18.92;10.75;;;13.00;99.90;;;;;;5089853;28;20047;-65
2022/06/07 09:41:52;;;;;;;17.05;10.95;;;13.10;99.90;;;;;;5096790;28;20076;-65
2022/06/07 09:44:38;;;;;;;22.55;11.70;;;13.00;99.90;;;;;;5085080;28;20543;-64
2022/06/07 09:47:19;;;;;;;16.83;10.98;;;13.10;99.90;;;;;;5084512;28;20043;-65
2022/06/07 09:49:45;;;;;;;20.90;10.98;;;13.10;99.90;;;;;;5090569;28;20055;-65
2022/06/07 09:52:21;;;;;;;18.60;12.43;;;13.00;99.90;;;;;;5096804;28;20064;-65
2022/06/07 09:54:49;;;;;;;19.83;11.25;;;12.90;99.90;;;;;;5068709;28;20054;-65
2022/06/07 09:57:36;;;;;;;17.77;11.13;;;13.00;99.90;;;;;;5099063;28;20044;-65
2022/06/07 10:00:21;;;;;;;18.25;10.77;;;12.80;99.90;;;;;;5067580;28;20048;-65
2022/06/07 10:03:16;;;;;;;19.90;10.75;;;12.80;99.90;;;;;;5084891;28;20301;-65
2022/06/07 10:05:49;;;;;;;18.52;10.35;;;12.90;99.90;;;;;;5098553;28;20059;-65
2022/06/07 10:08:47;;;;;;;16.30;10.02;;;13.20;99.90;;;;;;5091946;28;20746;-65
2022/06/07 10:11:31;;;;;;;15.60;9.88;;;13.20;99.90;;;;;;5095205;28;20166;-63
2022/06/07 10:14:20;;;;;;;15.15;9.90;;;13.10;99.90;;;;;;5103916;27;20062;-63
2022/06/07 10:17:05;;;;;;;15.10;9.30;;;13.20;99.90;;;;;;5094381;28;20052;-63
2022/06/07 10:19:44;;;;;;;13.00;8.70;;;13.30;99.90;;;;;;5101985;28;20128;-62
2022/06/07 10:22:18;;;;;;;13.88;8.43;;;13.40;99.90;;;;;;5095582;28;20516;-62
2022/06/07 10:25:09;;;;;;;12.30;8.38;;;13.20;99.90;;;;;;5090969;28;20079;-63
2022/06/07 10:27:38;;;;;;;12.38;7.30;;;13.20;99.90;;;;;;5095487;28;20115;-63
2022/06/07 10:30:17;;;;;;;9.35;6.07;;;13.20;99.90;;;;;;5086528;28;20048;-63
2022/06/07 10:32:45;;;;;;;9.10;6.45;;;13.20;99.90;;;;;;5098254;28;20052;-63
2022/06/07 10:35:23;;;;;;;10.20;5.57;;;13.10;99.90;;;;;;5077873;28;21633;-62
2022/06/07 10:38:26;;;;;;;12.32;6.32;;;13.10;99.90;;;;;;5081022;28;20054;-63
2022/06/07 10:41:11;;;;;;;12.90;6.22;;;13.00;99.90;;;;;;5105953;28;20051;-62
2022/06/07 10:43:56;;;;;;;10.40;6.82;;;13.00;99.90;;;;;;5088926;28;20051;-62
2022/06/07 10:46:22;;;;;;;7.43;6.07;;;13.10;99.90;;;;;;5102020;28;20051;-62
2022/06/07 10:49:10;;;;;;;10.93;6.13;;;12.90;99.90;;;;;;5095258;28;20048;-63
2022/06/07 10:54:53;;;;;;;9.00;5.40;;;13.10;99.90;;;;;;5099508;28;20389;-62
2022/06/07 10:57:52;;;;;;;7.03;4.80;;;13.10;99.90;;;;;;5083213;28;20430;-62
2022/06/07 11:00:35;;;;;;;8.80;5.22;;;13.20;99.90;;;;;;5085993;28;20040;-62
2022/06/07 11:03:12;;;;;;;8.88;5.90;;;13.10;99.90;;;;;;5085320;28;20500;-62
2022/06/07 11:11:33;;;;;;;10.18;5.78;;;13.30;99.90;;;;;;5094229;28;20134;-63
2022/06/07 11:14:01;;;;;;;9.27;5.18;;;13.40;99.90;;;;;;5095707;28;20059;-63
2022/06/07 11:16:36;;;;;;;9.23;5.68;;;13.30;99.90;;;;;;5095552;28;20075;-63
2022/06/07 11:19:04;;;;;;;8.63;5.75;;;13.40;99.90;;;;;;5088680;28;20108;-63
2022/06/07 11:21:34;;;;;;;9.10;6.13;;;13.30;99.90;;;;;;5091458;28;20032;-63
2022/06/07 11:24:02;;;;;;;;;;;13.30;99.90;;;;;;5095867;28;20123;-63
2022/06/07 11:26:58;;;;;;;7.80;5.60;;;13.40;99.90;;;;;;5095112;28;19924;-63
2022/06/07 11:29:32;;;;;;;9.02;4.75;;;13.20;99.90;;;;;;5089159;28;20059;-63
2022/06/07 11:32:03;;;;;;;6.18;3.58;;;13.40;99.90;;;;;;5099224;28;20055;-63
2022/06/07 11:34:38;;;;;;;6.18;3.50;;;13.50;99.90;;;;;;5088183;28;20086;-63
2022/06/07 11:37:16;;;;;;;5.10;2.92;;;13.30;99.90;;;;;;5098153;28;20048;-63
2022/06/07 11:39:41;;;;;;;6.72;3.65;;;13.30;99.90;;;;;;5088057;28;20071;-63
2022/06/07 11:42:07;;;;;;;5.85;3.53;;;13.30;99.90;;;;;;5094906;28;20206;-63
2022/06/07 11:44:38;;;;;;;6.50;3.80;;;13.20;99.90;;;;;;5085869;28;20048;-63
2022/06/07 11:47:06;;;;;;;6.03;3.03;;;13.40;99.90;;;;;;5092494;28;20470;-63
2022/06/07 11:49:41;;;;;;;4.65;3.08;;;13.30;99.90;;;;;;5092275;28;20083;-63
2022/06/07 11:52:13;;;;;;;10.30;3.30;;;13.30;99.90;;;;;;5092929;28;20067;-63
2022/06/07 11:54:53;;;;;;;4.55;2.80;;;13.30;99.90;;;;;;5088186;28;20124;-63
2022/06/07 11:57:28;;;;;;;5.03;3.00;;;13.30;99.90;;;;;;5096751;28;20060;-63
2022/06/07 12:00:18;;;;;;;3.90;2.50;;;13.50;99.90;;;;;;5069553;28;20059;-63
2022/06/07 12:03:06;;;;;;;;;;;13.40;99.90;;;;;;5098301;28;20540;-63
2022/06/07 12:05:53;;;;;;;4.28;2.65;;;13.30;99.90;;;;;;5083560;28;19970;-63
2022/06/07 12:08:43;;;;;;;4.90;2.58;;;13.30;99.90;;;;;;5087932;28;20071;-63
2022/06/07 12:11:20;;;;;;;4.00;2.30;;;13.10;99.90;;;;;;5097852;28;20579;-63
2022/06/07 12:13:56;;;;;;;3.88;2.35;;;13.20;99.90;;;;;;5095683;28;20066;-63
2022/06/07 12:16:34;;;;;;;4.35;2.35;;;12.90;99.90;;;;;;5081791;28;20048;-63
2022/06/07 12:19:02;;;;;;;5.95;2.50;;;13.00;99.90;;;;;;5091683;28;20051;-63
2022/06/07 12:21:32;;;;;;;5.18;2.30;;;13.20;99.90;;;;;;5090923;28;20161;-63
2022/06/07 12:24:17;;;;;;;6.00;2.63;;;13.20;99.90;;;;;;5091648;28;20067;-63
2022/06/07 12:26:47;;;;;;;3.97;2.42;;;13.20;99.90;;;;;;5098435;28;20124;-63
2022/06/07 12:29:21;;;;;;;4.18;2.22;;;13.20;99.90;;;;;;5089102;28;20182;-63
2022/06/07 12:31:51;;;;;;;6.60;2.10;;;13.30;99.90;;;;;;5094995;28;20614;-63
2022/06/07 12:34:21;;;;;;;4.60;2.40;;;13.20;99.90;;;;;;5093954;28;20059;-63
2022/06/07 12:37:09;;;;;;;4.03;2.50;;;13.40;99.90;;;;;;5084811;28;20040;-63
2022/06/07 12:39:47;;;;;;;3.97;2.88;;;13.40;99.90;;;;;;5099399;28;20550;-63
2022/06/07 12:42:18;;;;;;;3.53;2.63;;;13.60;99.90;;;;;;5098085;28;20199;-63
2022/06/07 12:44:56;;;;;;;3.70;2.20;;;13.60;99.90;;;;;;5091457;28;20047;-63
2022/06/07 12:47:29;;;;;;;5.35;2.25;;;13.60;99.90;;;;;;5097674;28;20091;-63
2022/06/07 12:49:55;;;;;;;2.30;2.10;;;13.70;99.90;;;;;;5091172;28;20055;-63
2022/06/07 12:52:27;;;;;;;5.38;2.95;;;13.70;99.90;;;;;;5097850;28;20552;-63
2022/06/07 12:55:07;;;;;;;5.55;2.55;;;13.80;99.90;;;;;;5091576;28;20073;-63
2022/06/07 12:57:44;;;;;;;3.75;3.00;;;13.80;99.90;;;;;;5098193;28;20044;-64
2022/06/07 13:00:13;;;;;;;5.00;3.08;;;14.00;99.90;;;;;;5103718;28;20058;-64
2022/06/07 13:02:45;;;;;;;6.13;2.90;;;14.10;99.90;;;;;;5097691;28;20065;-63
2022/06/07 13:05:23;;;;;;;5.80;3.30;;;14.00;99.90;;;;;;5103535;28;20048;-63
2022/06/07 13:07:53;;;;;;;5.50;3.97;;;14.10;99.90;;;;;;5097816;28;20578;-63
2022/06/07 13:10:23;;;;;;;5.72;3.67;;;14.30;99.90;;;;;;5103994;28;20486;-63
2022/06/07 13:12:49;;;;;;;;;;;14.50;99.90;;;;;;5097334;28;20028;-63
2022/06/07 13:15:26;;;;;;;7.20;3.70;;;14.60;99.90;;;;;;5084041;28;19930;-64